createdAt,value
2018-05-02T00:00:08.266Z,62.67
2018-05-02T00:02:36.754Z,65.11
2018-05-02T00:05:05.147Z,63.91
2018-05-02T00:07:33.584Z,65.01
2018-05-02T00:10:02.126Z,64.02
2018-05-02T00:12:30.577Z,64.10
2018-05-02T00:14:58.987Z,63.52
2018-05-02T00:17:27.560Z,63.15
2018-05-02T00:19:55.992Z,63.37
2018-05-02T00:22:24.395Z,63.68
2018-05-02T00:24:52.858Z,63.70
2018-05-02T00:27:21.278Z,65.26
2018-05-02T00:29:49.746Z,64.79
2018-05-02T00:32:18.158Z,66.44
2018-05-02T00:34:46.627Z,65.21
2018-05-02T00:37:15.051Z,65.60
2018-05-02T00:39:43.480Z,64.61
2018-05-02T00:42:11.939Z,64.17
2018-05-02T00:44:40.355Z,64.06
2018-05-02T00:47:08.817Z,63.87
2018-05-02T00:49:37.273Z,64.33
2018-05-02T00:52:05.701Z,64.73
2018-05-02T00:54:34.147Z,64.30
2018-05-02T00:57:02.589Z,64.59
2018-05-02T00:59:31.003Z,64.71
2018-05-02T01:01:59.461Z,64.33
2018-05-02T01:04:27.858Z,64.77
2018-05-02T01:06:56.327Z,63.86
2018-05-02T01:09:24.757Z,64.59
2018-05-02T01:11:53.192Z,64.30
2018-05-02T01:14:21.602Z,64.28
2018-05-02T01:16:50.058Z,64.71
2018-05-02T01:19:18.483Z,64.73
2018-05-02T01:21:46.949Z,64.98
2018-05-02T01:24:15.515Z,65.69
2018-05-02T01:26:43.941Z,66.31
2018-05-02T01:29:12.347Z,65.37
2018-05-02T01:31:40.808Z,65.41
2018-05-02T01:34:09.213Z,67.07
2018-05-02T01:36:37.703Z,67.82
2018-05-02T01:39:06.164Z,67.18
2018-05-02T01:41:34.565Z,67.81
2018-05-02T01:44:02.984Z,69.29
2018-05-02T01:46:31.426Z,67.73
2018-05-02T01:49:11.692Z,68.98
2018-05-02T01:51:40.119Z,70.17
2018-05-02T01:54:08.560Z,70.54
2018-05-02T01:56:36.984Z,69.77
2018-05-02T01:59:05.376Z,68.84
2018-05-02T02:01:33.779Z,69.71
2018-05-02T02:04:02.223Z,68.98
2018-05-02T02:06:30.672Z,69.23
2018-05-02T02:08:59.115Z,69.67
2018-05-02T02:11:27.509Z,69.02
2018-05-02T02:13:55.952Z,69.32
2018-05-02T02:16:24.412Z,69.81
2018-05-02T02:18:52.820Z,70.03
2018-05-02T02:21:21.287Z,69.65
2018-05-02T02:23:49.751Z,69.77
2018-05-02T02:26:19.157Z,69.62
2018-05-02T02:28:47.582Z,69.45
2018-05-02T02:31:16.594Z,69.73
2018-05-02T02:33:46.649Z,69.03
2018-05-02T02:36:16.498Z,70.21
2018-05-02T02:38:45.624Z,70.20
2018-05-02T02:41:15.506Z,69.77
2018-05-02T02:43:43.906Z,69.54
2018-05-02T02:46:12.343Z,69.70
2018-05-02T02:48:40.769Z,69.57
2018-05-02T02:51:09.199Z,69.48
2018-05-02T02:53:37.674Z,70.57
2018-05-02T02:56:06.104Z,72.15
2018-05-02T02:58:34.571Z,71.95
2018-05-02T03:01:03.029Z,72.36
2018-05-02T03:03:31.486Z,72.18
2018-05-02T03:05:59.890Z,71.42
2018-05-02T03:08:28.294Z,71.21
2018-05-02T03:10:56.712Z,70.93
2018-05-02T03:13:25.147Z,70.86
2018-05-02T03:15:53.639Z,71.05
2018-05-02T03:18:22.058Z,71.40
2018-05-02T03:20:50.502Z,70.98
2018-05-02T03:23:18.964Z,71.15
2018-05-02T03:25:47.431Z,71.28
2018-05-02T03:28:16.075Z,70.67
2018-05-02T03:30:44.589Z,71.40
2018-05-02T03:33:13.008Z,71.26
2018-05-02T03:35:41.404Z,72.07
2018-05-02T03:38:09.899Z,71.50
2018-05-02T03:40:38.324Z,71.01
2018-05-02T03:43:06.783Z,71.06
2018-05-02T03:45:35.251Z,69.63
2018-05-02T03:48:03.676Z,69.75
2018-05-02T03:50:32.159Z,70.35
2018-05-02T03:53:00.586Z,70.22
2018-05-02T03:55:29.075Z,69.99
2018-05-02T03:57:57.559Z,70.10
2018-05-02T04:00:37.816Z,69.79
2018-05-02T04:03:18.104Z,69.63
2018-05-02T04:05:58.488Z,69.57
2018-05-02T04:08:26.945Z,69.43
2018-05-02T04:10:55.496Z,68.55
2018-05-02T04:13:23.953Z,68.42
2018-05-02T04:15:52.369Z,67.22
2018-05-02T04:18:20.839Z,67.13
2018-05-02T04:20:49.261Z,66.38
2018-05-02T04:23:17.703Z,65.96
2018-05-02T04:25:46.144Z,66.74
2018-05-02T04:28:14.623Z,65.54
2018-05-02T04:30:43.087Z,64.17
2018-05-02T04:33:11.494Z,61.25
2018-05-02T04:35:39.953Z,61.36
2018-05-02T04:38:08.401Z,61.45
2018-05-02T04:40:36.850Z,59.49
2018-05-02T04:43:05.299Z,59.13
2018-05-02T04:45:33.770Z,60.18
2018-05-02T04:48:02.192Z,60.23
2018-05-02T04:50:30.724Z,59.46
2018-05-02T04:52:59.423Z,58.48
2018-05-02T04:55:27.956Z,57.79
2018-05-02T04:57:56.317Z,57.13
2018-05-02T05:00:24.800Z,56.81
2018-05-02T05:02:53.295Z,56.87
2018-05-02T05:05:21.741Z,57.69
2018-05-02T05:07:50.174Z,57.31
2018-05-02T05:10:19.528Z,56.91
2018-05-02T05:12:47.982Z,55.62
2018-05-02T05:15:16.511Z,54.91
2018-05-02T05:17:44.963Z,54.58
2018-05-02T05:20:13.715Z,54.38
2018-05-02T05:22:42.200Z,53.40
2018-05-02T05:25:10.651Z,52.91
2018-05-02T05:27:39.055Z,51.45
2018-05-02T05:30:07.508Z,51.11
2018-05-02T05:32:35.967Z,50.90
2018-05-02T05:35:04.388Z,50.59
2018-05-02T05:37:33.057Z,50.52
2018-05-02T05:40:01.743Z,50.58
2018-05-02T05:42:30.237Z,50.20
2018-05-02T05:44:58.712Z,50.03
2018-05-02T05:47:27.192Z,49.40
2018-05-02T05:49:55.612Z,49.68
2018-05-02T05:52:24.070Z,49.29
2018-05-02T05:54:52.638Z,48.80
2018-05-02T05:57:21.075Z,48.23
2018-05-02T05:59:49.489Z,48.12
2018-05-02T06:02:17.932Z,48.16
2018-05-02T06:04:46.391Z,48.17
2018-05-02T06:07:14.865Z,47.88
2018-05-02T06:09:43.328Z,47.90
2018-05-02T06:12:11.815Z,47.52
2018-05-02T06:14:40.274Z,46.17
2018-05-02T06:17:08.781Z,46.32
2018-05-02T06:19:37.174Z,46.45
2018-05-02T06:22:05.624Z,46.00
2018-05-02T06:24:34.087Z,45.08
2018-05-02T06:27:02.576Z,44.81
2018-05-02T06:29:31.035Z,44.63
2018-05-02T06:31:59.461Z,44.43
2018-05-02T06:34:27.935Z,44.07
2018-05-02T06:36:56.348Z,43.72
2018-05-02T06:39:24.799Z,43.06
2018-05-02T06:41:53.382Z,42.97
2018-05-02T06:44:21.864Z,43.53
2018-05-02T06:46:50.299Z,43.66
2018-05-02T06:49:18.796Z,42.75
2018-05-02T06:51:47.227Z,41.87
2018-05-02T06:54:15.650Z,40.90
2018-05-02T06:56:44.096Z,41.17
2018-05-02T06:59:12.487Z,41.39
2018-05-02T07:01:41.052Z,40.21
2018-05-02T07:04:09.463Z,41.01
2018-05-02T07:06:37.929Z,39.96
2018-05-02T07:09:12.316Z,39.84
2018-05-02T07:11:40.743Z,39.44
2018-05-02T07:14:09.190Z,38.81
2018-05-02T07:16:37.605Z,39.38
2018-05-02T07:19:06.090Z,38.89
2018-05-02T07:21:34.475Z,38.55
2018-05-02T07:24:03.011Z,38.60
2018-05-02T07:26:31.397Z,37.11
2018-05-02T07:28:59.790Z,36.94
2018-05-02T07:31:28.215Z,36.71
2018-05-02T07:33:56.625Z,34.88
2018-05-02T07:36:25.056Z,35.50
2018-05-02T07:38:53.488Z,34.55
2018-05-02T07:41:21.943Z,35.09
2018-05-02T07:43:50.359Z,35.21
2018-05-02T07:46:18.767Z,36.37
2018-05-02T07:48:47.224Z,36.04
2018-05-02T07:51:15.710Z,36.10
2018-05-02T07:53:44.122Z,34.62
2018-05-02T07:56:12.684Z,33.98
2018-05-02T07:58:41.124Z,33.83
2018-05-02T08:01:09.572Z,33.46
2018-05-02T08:03:38.008Z,33.93
2018-05-02T08:06:06.460Z,32.20
2018-05-02T08:08:34.864Z,32.39
2018-05-02T08:11:03.318Z,32.07
2018-05-02T08:13:31.766Z,33.23
2018-05-02T08:16:00.156Z,32.02
2018-05-02T08:18:28.595Z,32.19
2018-05-02T08:20:56.980Z,31.42
2018-05-02T08:23:25.439Z,29.61
2018-05-02T08:25:53.860Z,30.10
2018-05-02T08:28:22.263Z,27.40
2018-05-02T08:30:50.698Z,29.40
2018-05-02T08:33:19.178Z,30.20
2018-05-02T08:35:47.627Z,28.99
2018-05-02T08:38:16.085Z,27.36
2018-05-02T08:40:44.484Z,27.20
2018-05-02T08:43:12.898Z,27.45
2018-05-02T08:45:41.299Z,28.81
2018-05-02T08:48:09.702Z,29.22
2018-05-02T08:50:38.159Z,29.01
2018-05-02T08:53:06.589Z,25.23
2018-05-02T08:55:35.016Z,23.62
2018-05-02T08:58:03.441Z,23.91
2018-05-02T09:00:31.905Z,24.58
2018-05-02T09:03:00.383Z,23.15
2018-05-02T09:05:28.807Z,22.73
2018-05-02T09:07:57.243Z,22.14
2018-05-02T09:10:25.659Z,21.33
2018-05-02T09:12:54.083Z,20.55
2018-05-02T09:15:22.540Z,19.55
2018-05-02T09:17:50.949Z,20.29
2018-05-02T09:20:19.335Z,21.34
2018-05-02T09:22:47.758Z,21.11
2018-05-02T09:25:16.235Z,20.96
2018-05-02T09:27:44.656Z,20.68
2018-05-02T09:30:13.120Z,19.95
2018-05-02T09:32:41.556Z,21.04
2018-05-02T09:35:10.103Z,21.52
2018-05-02T09:37:38.618Z,20.59
2018-05-02T09:40:07.110Z,20.14
2018-05-02T09:42:35.519Z,21.17
2018-05-02T09:45:03.966Z,21.47
2018-05-02T09:47:32.457Z,21.47
2018-05-02T09:50:00.949Z,20.84
2018-05-02T09:52:29.361Z,19.92
2018-05-02T09:54:57.811Z,19.41
2018-05-02T09:57:26.215Z,19.66
2018-05-02T09:59:54.652Z,19.77
2018-05-02T10:02:23.137Z,20.39
2018-05-02T10:04:51.627Z,20.07
2018-05-02T10:07:20.158Z,20.79
2018-05-02T10:09:49.675Z,21.02
2018-05-02T10:12:18.084Z,20.38
2018-05-02T10:14:46.529Z,19.36
2018-05-02T10:17:14.928Z,19.14
2018-05-02T10:19:43.519Z,20.24
2018-05-02T10:22:11.897Z,19.42
2018-05-02T10:24:40.354Z,19.61
2018-05-02T10:27:08.807Z,19.90
2018-05-02T10:29:37.323Z,19.76
2018-05-02T10:32:05.751Z,18.89
2018-05-02T10:34:34.185Z,18.21
2018-05-02T10:37:02.740Z,18.16
2018-05-02T10:39:31.096Z,17.38
2018-05-02T10:41:59.568Z,17.97
2018-05-02T10:44:27.967Z,17.48
2018-05-02T10:46:56.406Z,17.13
2018-05-02T10:49:24.815Z,16.73
2018-05-02T10:51:53.271Z,16.13
2018-05-02T10:54:21.831Z,15.66
2018-05-02T10:56:50.264Z,15.67
2018-05-02T10:59:18.641Z,15.80
2018-05-02T11:01:47.079Z,15.35
2018-05-02T11:04:15.559Z,14.41
2018-05-02T11:06:44.035Z,13.95
2018-05-02T11:09:12.460Z,13.92
2018-05-02T11:11:40.952Z,13.42
2018-05-02T11:14:09.355Z,13.23
2018-05-02T11:16:37.817Z,13.66
2018-05-02T11:19:06.290Z,13.82
2018-05-02T11:21:34.769Z,12.80
2018-05-02T11:24:03.203Z,12.49
2018-05-02T11:26:31.647Z,12.21
2018-05-02T11:29:00.107Z,12.75
2018-05-02T11:31:28.521Z,13.31
2018-05-02T11:33:56.956Z,13.46
2018-05-02T11:36:25.355Z,14.64
2018-05-02T11:38:54.126Z,13.74
2018-05-02T11:41:22.540Z,12.61
2018-05-02T11:43:50.960Z,12.49
2018-05-02T11:46:19.461Z,12.11
2018-05-02T11:48:48.056Z,12.00
2018-05-02T11:51:16.491Z,12.43
2018-05-02T11:53:44.920Z,12.94
2018-05-02T11:56:13.376Z,13.14
2018-05-02T11:58:41.858Z,13.46
2018-05-02T12:01:10.279Z,13.50
2018-05-02T12:03:38.759Z,12.66
2018-05-02T12:06:07.216Z,13.44
2018-05-02T12:08:35.623Z,12.25
2018-05-02T12:11:04.079Z,11.12
2018-05-02T12:13:32.505Z,10.70
2018-05-02T12:16:00.971Z,11.37
2018-05-02T12:18:29.397Z,10.21
2018-05-02T12:20:57.888Z,9.75
2018-05-02T12:23:26.318Z,10.33
2018-05-02T12:25:54.741Z,9.44
2018-05-02T12:28:23.171Z,9.51
2018-05-02T12:30:51.617Z,10.24
2018-05-02T12:33:20.039Z,10.68
2018-05-02T12:35:48.532Z,10.50
2018-05-02T12:38:16.922Z,10.70
2018-05-02T12:40:45.373Z,10.04
2018-05-02T12:43:13.815Z,9.18
2018-05-02T12:45:42.250Z,8.32
2018-05-02T12:48:10.667Z,7.96
2018-05-02T12:50:39.136Z,7.66
2018-05-02T12:53:07.539Z,7.80
2018-05-02T12:55:35.959Z,7.92
2018-05-02T12:58:04.398Z,7.62
2018-05-02T13:00:33.375Z,8.55
2018-05-02T13:03:01.782Z,8.04
2018-05-02T13:05:30.180Z,8.37
2018-05-02T13:07:58.736Z,7.77
2018-05-02T13:10:27.161Z,8.33
2018-05-02T13:12:55.855Z,9.08
2018-05-02T13:15:24.384Z,8.31
2018-05-02T13:17:52.799Z,8.20
2018-05-02T13:20:21.187Z,7.29
2018-05-02T13:22:49.631Z,7.57
2018-05-02T13:25:18.101Z,7.27
2018-05-02T13:27:46.911Z,6.79
2018-05-02T13:30:15.339Z,6.42
2018-05-02T13:32:43.746Z,6.36
2018-05-02T13:35:12.148Z,6.90
2018-05-02T13:37:40.591Z,6.87
2018-05-02T13:40:09.011Z,9.13
2018-05-02T13:42:37.482Z,10.46
2018-05-02T13:45:06.070Z,11.04
2018-05-02T13:47:34.524Z,11.06
2018-05-02T13:50:02.993Z,9.82
2018-05-02T13:52:31.718Z,9.47
2018-05-02T13:55:00.190Z,10.34
2018-05-02T13:57:28.611Z,11.45
2018-05-02T13:59:57.094Z,11.95
2018-05-02T14:02:25.574Z,12.11
2018-05-02T14:04:54.011Z,12.58
2018-05-02T14:07:22.452Z,13.24
2018-05-02T14:09:50.870Z,14.10
2018-05-02T14:12:19.310Z,14.77
2018-05-02T14:14:47.736Z,15.22
2018-05-02T14:17:16.192Z,15.86
2018-05-02T14:19:44.629Z,16.64
2018-05-02T14:22:13.433Z,17.16
2018-05-02T14:24:42.012Z,17.72
2018-05-02T14:27:10.451Z,17.83
2018-05-02T14:29:38.931Z,18.23
2018-05-02T14:32:07.424Z,18.30
2018-05-02T14:34:35.865Z,18.71
2018-05-02T14:37:04.332Z,18.64
2018-05-02T14:39:32.882Z,18.88
2018-05-02T14:42:01.413Z,18.85
2018-05-02T14:44:29.842Z,18.74
2018-05-02T14:46:59.099Z,18.79
2018-05-02T14:49:27.559Z,18.69
2018-05-02T14:51:56.045Z,18.10
2018-05-02T14:54:24.529Z,18.61
2018-05-02T14:56:52.961Z,19.04
2018-05-02T14:59:21.420Z,21.13
2018-05-02T15:01:50.815Z,22.74
2018-05-02T15:06:48.710Z,23.82
2018-05-02T15:09:17.119Z,24.97
2018-05-02T15:11:45.827Z,25.51
2018-05-02T15:14:14.492Z,25.99
2018-05-02T15:16:42.928Z,26.68
2018-05-02T15:19:11.565Z,27.13
2018-05-02T15:21:39.970Z,28.36
2018-05-02T15:24:08.423Z,28.28
2018-05-02T15:26:36.938Z,27.49
2018-05-02T15:29:05.364Z,26.54
2018-05-02T15:31:33.891Z,26.45
2018-05-02T15:34:02.323Z,27.07
2018-05-02T15:36:30.832Z,26.60
2018-05-02T15:38:59.284Z,26.95
2018-05-02T15:41:27.761Z,26.19
2018-05-02T15:43:56.259Z,25.62
2018-05-02T15:46:24.692Z,25.84
2018-05-02T15:48:53.138Z,24.50
2018-05-02T15:51:21.558Z,25.21
2018-05-02T15:53:50.011Z,26.02
2018-05-02T15:56:18.447Z,25.37
2018-05-02T15:58:46.858Z,24.89
2018-05-02T16:01:15.268Z,25.22
2018-05-02T16:03:43.699Z,24.35
2018-05-02T16:06:12.140Z,25.24
2018-05-02T16:08:40.559Z,25.96
2018-05-02T16:11:09.021Z,25.94
2018-05-02T16:13:37.448Z,26.33
2018-05-02T16:16:05.954Z,25.67
2018-05-02T16:18:34.375Z,25.44
2018-05-02T16:21:02.839Z,27.46
2018-05-02T16:23:31.263Z,27.82
2018-05-02T16:25:59.732Z,27.73
2018-05-02T16:28:28.154Z,28.97
2018-05-02T16:30:56.591Z,31.78
2018-05-02T16:33:25.623Z,28.53
2018-05-02T16:35:54.059Z,29.75
2018-05-02T16:38:22.659Z,30.51
2018-05-02T16:40:51.491Z,33.00
2018-05-02T16:43:20.038Z,34.05
2018-05-02T16:45:48.443Z,34.25
2018-05-02T16:48:17.252Z,35.06
2018-05-02T16:50:45.651Z,35.42
2018-05-02T16:53:14.035Z,34.45
2018-05-02T16:55:42.488Z,35.43
2018-05-02T16:58:10.893Z,33.99
2018-05-02T17:00:39.513Z,33.95
2018-05-02T17:03:09.263Z,34.59
2018-05-02T17:05:37.651Z,35.62
2018-05-02T17:08:06.079Z,35.18
2018-05-02T17:10:34.564Z,33.17
2018-05-02T17:13:02.969Z,33.49
2018-05-02T17:15:31.442Z,33.35
2018-05-02T17:18:00.158Z,33.41
2018-05-02T17:20:28.568Z,31.69
2018-05-02T17:22:56.973Z,31.26
2018-05-02T17:25:25.707Z,27.76
2018-05-02T17:27:54.124Z,26.80
2018-05-02T17:30:22.549Z,25.06
2018-05-02T17:32:51.244Z,23.14
2018-05-02T17:35:19.744Z,21.76
2018-05-02T17:37:48.155Z,21.11
2018-05-02T17:40:16.916Z,21.15
2018-05-02T17:42:45.311Z,21.17
2018-05-02T17:45:13.711Z,21.29
2018-05-02T17:47:42.748Z,21.86
2018-05-02T17:50:11.153Z,22.70
2018-05-02T17:52:39.618Z,23.50
2018-05-02T17:55:08.295Z,25.33
2018-05-02T17:57:36.738Z,26.57
2018-05-02T18:00:05.203Z,27.64
2018-05-02T18:02:33.971Z,29.20
2018-05-02T18:05:02.402Z,30.15
2018-05-02T18:07:30.827Z,30.38
2018-05-02T18:09:59.294Z,30.62
2018-05-02T18:12:27.700Z,30.60
2018-05-02T18:14:56.148Z,30.95
2018-05-02T18:17:24.575Z,31.25
2018-05-02T18:19:52.975Z,31.69
2018-05-02T18:22:21.430Z,31.47
2018-05-02T18:24:50.048Z,31.63
2018-05-02T18:27:18.452Z,31.76
2018-05-02T18:29:46.913Z,32.06
2018-05-02T18:32:15.396Z,32.04
2018-05-02T18:34:43.789Z,32.13
2018-05-02T18:37:12.248Z,32.40
2018-05-02T18:39:40.651Z,32.73
2018-05-02T18:42:09.083Z,32.74
2018-05-02T18:44:37.565Z,33.01
2018-05-02T18:47:06.001Z,33.18
2018-05-02T18:49:34.429Z,33.23
2018-05-02T18:52:02.884Z,33.06
2018-05-02T18:54:31.311Z,32.90
2018-05-02T18:56:59.695Z,32.88
2018-05-02T18:59:28.203Z,32.84
2018-05-02T19:01:56.632Z,32.85
2018-05-02T19:04:25.082Z,32.84
2018-05-02T19:06:53.537Z,33.01
2018-05-02T19:09:21.934Z,33.18
2018-05-02T19:11:50.372Z,33.34
2018-05-02T19:14:18.866Z,34.10
2018-05-02T19:16:47.336Z,34.01
2018-05-02T19:19:21.489Z,34.01
2018-05-02T19:21:50.014Z,33.75
2018-05-02T19:24:18.444Z,34.02
2018-05-02T19:26:46.869Z,33.56
2018-05-02T19:29:15.316Z,34.03
2018-05-02T19:31:49.343Z,34.24
2018-05-02T19:34:17.899Z,34.34
2018-05-02T19:36:46.359Z,34.70
2018-05-02T19:39:14.799Z,34.96
2018-05-02T19:41:48.863Z,34.66
2018-05-02T19:44:17.379Z,34.79
2018-05-02T19:46:45.760Z,34.65
2018-05-02T19:49:14.191Z,34.88
2018-05-02T19:51:48.125Z,34.65
2018-05-02T19:54:16.589Z,34.45
2018-05-02T19:56:44.999Z,34.42
2018-05-02T19:59:13.798Z,34.13
2018-05-02T20:01:47.786Z,34.35
2018-05-02T20:04:16.255Z,34.40
2018-05-02T20:06:44.662Z,34.44
2018-05-02T20:09:19.200Z,34.45
2018-05-02T20:11:53.302Z,33.87
2018-05-02T20:14:21.761Z,33.44
2018-05-02T20:16:50.157Z,33.06
2018-05-02T20:19:18.619Z,32.69
2018-05-02T20:21:47.560Z,33.02
2018-05-02T20:24:15.952Z,32.96
2018-05-02T20:26:44.393Z,32.81
2018-05-02T20:29:13.104Z,32.59
2018-05-02T20:31:41.518Z,33.33
2018-05-02T20:34:09.962Z,33.04
2018-05-02T20:36:38.806Z,32.26
2018-05-02T20:39:07.187Z,31.88
2018-05-02T20:41:35.606Z,32.02
2018-05-02T20:44:04.412Z,32.00
2018-05-02T20:46:32.909Z,32.23
2018-05-02T20:49:01.273Z,32.51
2018-05-02T20:51:29.734Z,32.54
2018-05-02T20:53:58.201Z,32.60
2018-05-02T20:56:26.591Z,32.98
2018-05-02T20:58:54.999Z,33.17
2018-05-02T21:01:23.417Z,33.72
2018-05-02T21:03:51.802Z,33.92
2018-05-02T21:06:20.209Z,34.25
2018-05-02T21:08:48.614Z,34.45
2018-05-02T21:11:17.052Z,34.93
2018-05-02T21:13:45.452Z,35.24
2018-05-02T21:16:13.840Z,35.57
2018-05-02T21:18:42.263Z,35.87
2018-05-02T21:21:10.900Z,35.44
2018-05-02T21:23:39.346Z,35.08
2018-05-02T21:26:07.782Z,35.39
2018-05-02T21:28:36.199Z,35.86
2018-05-02T21:31:04.676Z,36.61
2018-05-02T21:33:33.011Z,37.06
2018-05-02T21:36:01.496Z,37.19
2018-05-02T21:38:29.904Z,38.08
2018-05-02T21:40:58.288Z,36.56
2018-05-02T21:43:26.722Z,35.21
2018-05-02T21:45:55.101Z,35.25
2018-05-02T21:48:23.539Z,35.98
2018-05-02T21:50:51.969Z,36.18
2018-05-02T21:53:20.410Z,38.50
2018-05-02T21:55:48.831Z,39.46
2018-05-02T21:58:17.233Z,39.21
2018-05-02T22:00:45.697Z,38.93
2018-05-02T22:03:14.097Z,38.62
2018-05-02T22:05:42.575Z,38.15
2018-05-02T22:08:10.966Z,39.78
2018-05-02T22:10:39.346Z,39.48
2018-05-02T22:13:07.793Z,39.97
2018-05-02T22:15:36.258Z,40.02
2018-05-02T22:18:04.704Z,40.93
2018-05-02T22:20:33.089Z,40.96
2018-05-02T22:23:01.525Z,41.59
2018-05-02T22:25:29.939Z,41.83
2018-05-02T22:27:58.414Z,41.74
2018-05-02T22:30:26.791Z,42.39
2018-05-02T22:32:55.197Z,42.79
2018-05-02T22:35:23.661Z,43.29
2018-05-02T22:37:52.101Z,44.09
2018-05-02T22:40:20.511Z,44.87
2018-05-02T22:42:48.976Z,44.39
2018-05-02T22:45:17.384Z,45.31
2018-05-02T22:47:45.801Z,45.92
2018-05-02T22:50:14.248Z,46.66
2018-05-02T22:52:42.640Z,46.66
2018-05-02T22:55:11.034Z,47.15
2018-05-02T22:57:39.480Z,46.62
2018-05-02T23:00:07.905Z,46.53
2018-05-02T23:02:36.128Z,46.20
2018-05-02T23:05:04.537Z,47.52
2018-05-02T23:07:32.977Z,47.67
2018-05-02T23:10:01.391Z,47.45
2018-05-02T23:12:29.872Z,47.14
2018-05-02T23:14:58.256Z,47.14
2018-05-02T23:17:26.696Z,47.61
2018-05-02T23:19:55.096Z,47.04
2018-05-02T23:22:24.377Z,48.13
2018-05-02T23:24:52.790Z,48.48
2018-05-02T23:27:21.217Z,48.49
2018-05-02T23:29:49.639Z,49.36
2018-05-02T23:32:18.066Z,49.19
2018-05-02T23:34:46.500Z,49.33
2018-05-02T23:37:14.944Z,50.66
2018-05-02T23:39:43.336Z,50.87
2018-05-02T23:42:11.793Z,51.19
2018-05-02T23:44:40.178Z,50.82
2018-05-02T23:47:08.626Z,51.14
2018-05-02T23:49:37.047Z,50.93
2018-05-02T23:52:05.503Z,51.94
2018-05-02T23:54:33.903Z,51.36
2018-05-02T23:57:02.307Z,52.28
2018-05-02T23:59:30.759Z,52.16
